sensor_id;sensor_type;location;lat;lon;timestamp;temperature;humidity
59977;DHT22;45837;51.076;3.578;2023-06-22T00:01:03;25.30;52.10
59977;DHT22;45837;51.076;3.578;2023-06-22T00:03:28;25.30;51.90
59977;DHT22;45837;51.076;3.578;2023-06-22T00:05:54;25.30;51.90
59977;DHT22;45837;51.076;3.578;2023-06-22T00:08:20;25.30;52.00
59977;DHT22;45837;51.076;3.578;2023-06-22T00:10:46;25.30;52.00
59977;DHT22;45837;51.076;3.578;2023-06-22T00:13:12;25.30;51.60
59977;DHT22;45837;51.076;3.578;2023-06-22T00:15:38;25.30;51.60
59977;DHT22;45837;51.076;3.578;2023-06-22T00:18:05;25.30;51.60
59977;DHT22;45837;51.076;3.578;2023-06-22T00:20:31;25.20;51.50
59977;DHT22;45837;51.076;3.578;2023-06-22T00:22:58;25.20;51.70
59977;DHT22;45837;51.076;3.578;2023-06-22T00:25:24;25.20;51.60
59977;DHT22;45837;51.076;3.578;2023-06-22T00:27:50;25.20;52.00
59977;DHT22;45837;51.076;3.578;2023-06-22T00:30:16;25.20;52.40
59977;DHT22;45837;51.076;3.578;2023-06-22T00:32:43;25.20;51.60
59977;DHT22;45837;51.076;3.578;2023-06-22T00:35:09;25.20;51.70
59977;DHT22;45837;51.076;3.578;2023-06-22T00:37:36;25.20;51.80
59977;DHT22;45837;51.076;3.578;2023-06-22T00:40:02;25.10;51.60
59977;DHT22;45837;51.076;3.578;2023-06-22T00:42:29;25.10;51.70
59977;DHT22;45837;51.076;3.578;2023-06-22T00:44:54;25.10;52.50
59977;DHT22;45837;51.076;3.578;2023-06-22T00:47:20;25.10;52.40
59977;DHT22;45837;51.076;3.578;2023-06-22T00:49:47;25.10;51.80
59977;DHT22;45837;51.076;3.578;2023-06-22T00:52:13;25.10;51.90
59977;DHT22;45837;51.076;3.578;2023-06-22T00:54:43;25.10;52.00
59977;DHT22;45837;51.076;3.578;2023-06-22T00:57:12;25.10;51.70
59977;DHT22;45837;51.076;3.578;2023-06-22T00:59:37;25.10;52.10
59977;DHT22;45837;51.076;3.578;2023-06-22T01:02:05;25.00;51.90
59977;DHT22;45837;51.076;3.578;2023-06-22T01:04:35;25.00;51.90
59977;DHT22;45837;51.076;3.578;2023-06-22T01:07:03;25.00;51.80
59977;DHT22;45837;51.076;3.578;2023-06-22T01:09:32;25.00;51.90
59977;DHT22;45837;51.076;3.578;2023-06-22T01:12:01;25.00;52.00
59977;DHT22;45837;51.076;3.578;2023-06-22T01:14:28;25.00;52.00
59977;DHT22;45837;51.076;3.578;2023-06-22T01:16:56;25.00;51.90
59977;DHT22;45837;51.076;3.578;2023-06-22T01:22:07;25.00;51.90
59977;DHT22;45837;51.076;3.578;2023-06-22T01:24:51;25.00;52.00
59977;DHT22;45837;51.076;3.578;2023-06-22T01:29:56;25.00;51.90
59977;DHT22;45837;51.076;3.578;2023-06-22T01:32:30;25.00;52.00
59977;DHT22;45837;51.076;3.578;2023-06-22T01:34:58;25.00;52.00
59977;DHT22;45837;51.076;3.578;2023-06-22T01:37:25;25.00;52.00
59977;DHT22;45837;51.076;3.578;2023-06-22T01:39:51;24.90;52.00
59977;DHT22;45837;51.076;3.578;2023-06-22T01:42:18;24.90;52.10
59977;DHT22;45837;51.076;3.578;2023-06-22T01:44:44;25.00;52.30
59977;DHT22;45837;51.076;3.578;2023-06-22T01:47:12;24.90;52.00
59977;DHT22;45837;51.076;3.578;2023-06-22T01:49:40;24.90;52.00
59977;DHT22;45837;51.076;3.578;2023-06-22T01:52:06;24.90;52.00
59977;DHT22;45837;51.076;3.578;2023-06-22T01:54:33;24.90;52.00
59977;DHT22;45837;51.076;3.578;2023-06-22T01:56:58;24.90;52.20
59977;DHT22;45837;51.076;3.578;2023-06-22T01:59:46;24.90;52.10
59977;DHT22;45837;51.076;3.578;2023-06-22T02:02:15;24.90;51.90
59977;DHT22;45837;51.076;3.578;2023-06-22T02:04:44;24.90;52.00
59977;DHT22;45837;51.076;3.578;2023-06-22T02:07:15;24.80;52.00
59977;DHT22;45837;51.076;3.578;2023-06-22T02:09:43;24.80;52.20
59977;DHT22;45837;51.076;3.578;2023-06-22T02:12:10;24.80;52.00
59977;DHT22;45837;51.076;3.578;2023-06-22T02:14:36;24.80;52.90
59977;DHT22;45837;51.076;3.578;2023-06-22T02:17:02;24.80;52.30
59977;DHT22;45837;51.076;3.578;2023-06-22T02:19:28;24.80;52.20
59977;DHT22;45837;51.076;3.578;2023-06-22T02:21:58;24.80;52.10
59977;DHT22;45837;51.076;3.578;2023-06-22T02:24:24;24.80;52.50
59977;DHT22;45837;51.076;3.578;2023-06-22T02:26:50;24.80;52.40
59977;DHT22;45837;51.076;3.578;2023-06-22T02:29:15;24.70;52.40
59977;DHT22;45837;51.076;3.578;2023-06-22T02:31:42;24.80;52.30
59977;DHT22;45837;51.076;3.578;2023-06-22T02:34:08;24.80;52.10
59977;DHT22;45837;51.076;3.578;2023-06-22T02:36:34;24.70;51.70
59977;DHT22;45837;51.076;3.578;2023-06-22T02:39:00;24.70;52.20
59977;DHT22;45837;51.076;3.578;2023-06-22T02:41:27;24.70;52.50
59977;DHT22;45837;51.076;3.578;2023-06-22T02:43:55;24.60;51.90
59977;DHT22;45837;51.076;3.578;2023-06-22T02:46:21;24.70;53.20
59977;DHT22;45837;51.076;3.578;2023-06-22T02:48:48;24.70;52.70
59977;DHT22;45837;51.076;3.578;2023-06-22T02:51:14;24.70;52.80
59977;DHT22;45837;51.076;3.578;2023-06-22T02:53:41;24.70;52.70
59977;DHT22;45837;51.076;3.578;2023-06-22T02:56:11;24.60;52.20
59977;DHT22;45837;51.076;3.578;2023-06-22T02:58:38;24.60;52.40
59977;DHT22;45837;51.076;3.578;2023-06-22T03:01:07;24.30;51.70
59977;DHT22;45837;51.076;3.578;2023-06-22T03:03:35;23.80;52.30
59977;DHT22;45837;51.076;3.578;2023-06-22T03:06:01;24.60;52.00
59977;DHT22;45837;51.076;3.578;2023-06-22T03:08:28;24.60;53.10
59977;DHT22;45837;51.076;3.578;2023-06-22T03:10:54;27.30;53.30
59977;DHT22;45837;51.076;3.578;2023-06-22T03:13:20;24.60;52.40
59977;DHT22;45837;51.076;3.578;2023-06-22T03:15:46;23.60;51.40
59977;DHT22;45837;51.076;3.578;2023-06-22T03:18:12;24.60;52.20
59977;DHT22;45837;51.076;3.578;2023-06-22T03:20:38;24.60;52.50
59977;DHT22;45837;51.076;3.578;2023-06-22T03:23:03;23.10;51.60
59977;DHT22;45837;51.076;3.578;2023-06-22T03:25:31;24.60;52.10
59977;DHT22;45837;51.076;3.578;2023-06-22T03:28:00;24.60;52.00
59977;DHT22;45837;51.076;3.578;2023-06-22T03:30:26;24.60;51.80
59977;DHT22;45837;51.076;3.578;2023-06-22T03:32:52;24.20;52.10
59977;DHT22;45837;51.076;3.578;2023-06-22T03:35:18;24.60;52.30
59977;DHT22;45837;51.076;3.578;2023-06-22T03:37:45;24.60;53.10
59977;DHT22;45837;51.076;3.578;2023-06-22T03:40:11;24.60;52.10
59977;DHT22;45837;51.076;3.578;2023-06-22T03:42:37;26.00;52.70
59977;DHT22;45837;51.076;3.578;2023-06-22T03:45:03;24.60;52.10
59977;DHT22;45837;51.076;3.578;2023-06-22T03:47:29;24.60;51.80
59977;DHT22;45837;51.076;3.578;2023-06-22T03:49:57;24.50;52.40
59977;DHT22;45837;51.076;3.578;2023-06-22T03:52:23;24.50;52.70
59977;DHT22;45837;51.076;3.578;2023-06-22T03:54:49;24.50;52.60
59977;DHT22;45837;51.076;3.578;2023-06-22T03:57:14;22.10;51.60
59977;DHT22;45837;51.076;3.578;2023-06-22T03:59:40;24.50;52.50
59977;DHT22;45837;51.076;3.578;2023-06-22T04:02:06;24.60;52.90
59977;DHT22;45837;51.076;3.578;2023-06-22T04:04:32;24.50;52.70
59977;DHT22;45837;51.076;3.578;2023-06-22T04:06:59;26.40;53.60
59977;DHT22;45837;51.076;3.578;2023-06-22T04:09:24;24.50;52.70
59977;DHT22;45837;51.076;3.578;2023-06-22T04:11:50;24.60;53.20
59977;DHT22;45837;51.076;3.578;2023-06-22T04:14:16;24.50;52.10
59977;DHT22;45837;51.076;3.578;2023-06-22T04:16:42;24.50;53.10
59977;DHT22;45837;51.076;3.578;2023-06-22T04:19:08;24.50;53.30
59977;DHT22;45837;51.076;3.578;2023-06-22T04:21:39;26.50;54.40
59977;DHT22;45837;51.076;3.578;2023-06-22T04:24:06;24.30;53.20
59977;DHT22;45837;51.076;3.578;2023-06-22T04:26:32;24.50;53.50
59977;DHT22;45837;51.076;3.578;2023-06-22T04:29:05;24.50;53.80
59977;DHT22;45837;51.076;3.578;2023-06-22T04:31:31;24.60;52.50
59977;DHT22;45837;51.076;3.578;2023-06-22T04:33:57;24.70;53.00
59977;DHT22;45837;51.076;3.578;2023-06-22T04:36:35;24.70;52.80
59977;DHT22;45837;51.076;3.578;2023-06-22T04:39:08;24.70;53.10
59977;DHT22;45837;51.076;3.578;2023-06-22T04:41:38;24.70;52.50
59977;DHT22;45837;51.076;3.578;2023-06-22T04:44:13;26.40;53.60
59977;DHT22;45837;51.076;3.578;2023-06-22T04:46:50;24.80;52.80
59977;DHT22;45837;51.076;3.578;2023-06-22T04:49:20;24.80;52.70
59977;DHT22;45837;51.076;3.578;2023-06-22T04:51:46;24.90;53.20
59977;DHT22;45837;51.076;3.578;2023-06-22T04:54:12;25.00;53.60
59977;DHT22;45837;51.076;3.578;2023-06-22T04:56:38;25.00;54.30
59977;DHT22;45837;51.076;3.578;2023-06-22T04:59:06;25.20;53.90
59977;DHT22;45837;51.076;3.578;2023-06-22T05:01:32;25.10;53.60
59977;DHT22;45837;51.076;3.578;2023-06-22T05:03:58;25.10;54.80
59977;DHT22;45837;51.076;3.578;2023-06-22T05:06:26;25.20;53.30
59977;DHT22;45837;51.076;3.578;2023-06-22T05:08:56;25.20;53.40
59977;DHT22;45837;51.076;3.578;2023-06-22T05:11:25;25.20;52.90
59977;DHT22;45837;51.076;3.578;2023-06-22T05:13:51;25.20;53.40
59977;DHT22;45837;51.076;3.578;2023-06-22T05:16:17;25.30;53.50
59977;DHT22;45837;51.076;3.578;2023-06-22T05:18:52;25.20;54.00
59977;DHT22;45837;51.076;3.578;2023-06-22T05:21:23;25.30;53.20
59977;DHT22;45837;51.076;3.578;2023-06-22T05:23:50;25.30;53.30
59977;DHT22;45837;51.076;3.578;2023-06-22T05:26:16;25.30;53.80
59977;DHT22;45837;51.076;3.578;2023-06-22T05:28:41;25.30;54.50
59977;DHT22;45837;51.076;3.578;2023-06-22T05:31:14;25.30;54.20
59977;DHT22;45837;51.076;3.578;2023-06-22T05:33:41;25.30;53.70
59977;DHT22;45837;51.076;3.578;2023-06-22T05:36:07;25.20;54.10
59977;DHT22;45837;51.076;3.578;2023-06-22T05:38:33;25.20;54.10
59977;DHT22;45837;51.076;3.578;2023-06-22T05:40:59;25.30;55.30
59977;DHT22;45837;51.076;3.578;2023-06-22T05:43:24;23.40;54.70
59977;DHT22;45837;51.076;3.578;2023-06-22T05:45:50;25.20;54.90
59977;DHT22;45837;51.076;3.578;2023-06-22T05:48:16;25.20;55.40
59977;DHT22;45837;51.076;3.578;2023-06-22T05:50:42;25.30;55.50
59977;DHT22;45837;51.076;3.578;2023-06-22T05:53:08;25.10;55.20
59977;DHT22;45837;51.076;3.578;2023-06-22T05:55:34;25.20;56.00
59977;DHT22;45837;51.076;3.578;2023-06-22T05:58:00;25.20;55.10
59977;DHT22;45837;51.076;3.578;2023-06-22T06:00:25;23.80;55.40
59977;DHT22;45837;51.076;3.578;2023-06-22T06:02:51;25.20;55.80
59977;DHT22;45837;51.076;3.578;2023-06-22T06:05:17;25.20;55.70
59977;DHT22;45837;51.076;3.578;2023-06-22T06:07:44;25.20;56.10
59977;DHT22;45837;51.076;3.578;2023-06-22T06:10:10;25.20;55.60
59977;DHT22;45837;51.076;3.578;2023-06-22T06:12:36;25.20;55.70
59977;DHT22;45837;51.076;3.578;2023-06-22T06:15:03;25.10;56.20
59977;DHT22;45837;51.076;3.578;2023-06-22T06:17:29;25.20;55.70
59977;DHT22;45837;51.076;3.578;2023-06-22T06:19:55;25.20;56.60
59977;DHT22;45837;51.076;3.578;2023-06-22T06:22:21;25.20;56.40
59977;DHT22;45837;51.076;3.578;2023-06-22T06:24:47;25.20;56.70
59977;DHT22;45837;51.076;3.578;2023-06-22T06:27:13;25.20;56.30
59977;DHT22;45837;51.076;3.578;2023-06-22T06:29:39;25.20;56.60
59977;DHT22;45837;51.076;3.578;2023-06-22T06:32:05;25.20;57.40
59977;DHT22;45837;51.076;3.578;2023-06-22T06:34:31;25.20;56.40
59977;DHT22;45837;51.076;3.578;2023-06-22T06:36:57;25.20;56.90
59977;DHT22;45837;51.076;3.578;2023-06-22T06:39:22;23.40;56.30
59977;DHT22;45837;51.076;3.578;2023-06-22T06:41:48;25.20;57.30
59977;DHT22;45837;51.076;3.578;2023-06-22T06:44:15;25.20;58.30
59977;DHT22;45837;51.076;3.578;2023-06-22T06:46:40;25.20;57.50
59977;DHT22;45837;51.076;3.578;2023-06-22T06:49:07;25.20;57.90
59977;DHT22;45837;51.076;3.578;2023-06-22T06:51:33;25.20;57.60
59977;DHT22;45837;51.076;3.578;2023-06-22T06:53:59;25.30;58.30
59977;DHT22;45837;51.076;3.578;2023-06-22T06:56:25;25.20;57.80
59977;DHT22;45837;51.076;3.578;2023-06-22T06:58:50;25.20;57.50
59977;DHT22;45837;51.076;3.578;2023-06-22T07:01:16;25.30;57.30
59977;DHT22;45837;51.076;3.578;2023-06-22T07:03:42;25.30;58.80
59977;DHT22;45837;51.076;3.578;2023-06-22T07:06:08;25.30;58.30
59977;DHT22;45837;51.076;3.578;2023-06-22T07:08:34;25.20;57.30
59977;DHT22;45837;51.076;3.578;2023-06-22T07:11:02;25.30;58.00
59977;DHT22;45837;51.076;3.578;2023-06-22T07:13:27;23.60;57.00
59977;DHT22;45837;51.076;3.578;2023-06-22T07:15:54;22.70;56.60
59977;DHT22;45837;51.076;3.578;2023-06-22T07:18:19;25.30;58.30
59977;DHT22;45837;51.076;3.578;2023-06-22T07:20:45;25.30;59.00
59977;DHT22;45837;51.076;3.578;2023-06-22T07:23:11;25.40;58.20
59977;DHT22;45837;51.076;3.578;2023-06-22T07:25:37;25.40;58.70
59977;DHT22;45837;51.076;3.578;2023-06-22T07:28:04;25.40;57.90
59977;DHT22;45837;51.076;3.578;2023-06-22T07:30:31;24.30;57.20
59977;DHT22;45837;51.076;3.578;2023-06-22T07:32:57;23.70;56.70
59977;DHT22;45837;51.076;3.578;2023-06-22T07:35:23;25.40;58.10
59977;DHT22;45837;51.076;3.578;2023-06-22T07:37:49;25.40;58.00
59977;DHT22;45837;51.076;3.578;2023-06-22T07:40:15;25.50;59.00
59977;DHT22;45837;51.076;3.578;2023-06-22T07:42:41;24.00;57.50
59977;DHT22;45837;51.076;3.578;2023-06-22T07:45:07;25.50;58.40
59977;DHT22;45837;51.076;3.578;2023-06-22T07:47:36;25.50;57.90
59977;DHT22;45837;51.076;3.578;2023-06-22T07:50:02;25.50;58.40
59977;DHT22;45837;51.076;3.578;2023-06-22T07:52:28;25.50;57.70
59977;DHT22;45837;51.076;3.578;2023-06-22T07:54:54;25.50;57.70
59977;DHT22;45837;51.076;3.578;2023-06-22T07:57:20;25.50;58.70
59977;DHT22;45837;51.076;3.578;2023-06-22T07:59:46;25.50;57.90
59977;DHT22;45837;51.076;3.578;2023-06-22T08:02:12;25.50;58.30
59977;DHT22;45837;51.076;3.578;2023-06-22T08:04:38;25.50;58.10
59977;DHT22;45837;51.076;3.578;2023-06-22T08:07:04;25.60;58.40
59977;DHT22;45837;51.076;3.578;2023-06-22T08:09:30;25.60;57.50
59977;DHT22;45837;51.076;3.578;2023-06-22T08:11:57;25.60;57.80
59977;DHT22;45837;51.076;3.578;2023-06-22T08:14:24;25.60;57.30
59977;DHT22;45837;51.076;3.578;2023-06-22T08:16:51;25.50;57.40
59977;DHT22;45837;51.076;3.578;2023-06-22T08:19:17;25.50;57.00
59977;DHT22;45837;51.076;3.578;2023-06-22T08:21:43;25.60;57.70
59977;DHT22;45837;51.076;3.578;2023-06-22T08:24:09;25.50;57.80
59977;DHT22;45837;51.076;3.578;2023-06-22T08:26:35;25.50;58.30
59977;DHT22;45837;51.076;3.578;2023-06-22T08:29:03;25.60;58.40
59977;DHT22;45837;51.076;3.578;2023-06-22T08:31:29;25.60;57.60
59977;DHT22;45837;51.076;3.578;2023-06-22T08:33:55;25.60;58.00
59977;DHT22;45837;51.076;3.578;2023-06-22T08:36:21;25.40;58.10
59977;DHT22;45837;51.076;3.578;2023-06-22T08:38:46;25.50;57.90
59977;DHT22;45837;51.076;3.578;2023-06-22T08:41:17;25.60;58.20
59977;DHT22;45837;51.076;3.578;2023-06-22T08:43:43;25.60;57.60
59977;DHT22;45837;51.076;3.578;2023-06-22T08:46:10;25.60;57.50
59977;DHT22;45837;51.076;3.578;2023-06-22T08:48:36;26.00;57.60
59977;DHT22;45837;51.076;3.578;2023-06-22T08:51:02;25.60;57.70
59977;DHT22;45837;51.076;3.578;2023-06-22T08:53:28;25.60;57.70
59977;DHT22;45837;51.076;3.578;2023-06-22T08:55:54;25.30;58.10
59977;DHT22;45837;51.076;3.578;2023-06-22T08:58:20;25.60;58.30
59977;DHT22;45837;51.076;3.578;2023-06-22T09:00:47;25.60;57.50
59977;DHT22;45837;51.076;3.578;2023-06-22T09:03:13;25.60;57.10
59977;DHT22;45837;51.076;3.578;2023-06-22T09:05:38;24.60;57.00
59977;DHT22;45837;51.076;3.578;2023-06-22T09:08:04;25.60;57.40
59977;DHT22;45837;51.076;3.578;2023-06-22T09:10:30;25.60;57.40
59977;DHT22;45837;51.076;3.578;2023-06-22T09:12:56;25.60;57.10
59977;DHT22;45837;51.076;3.578;2023-06-22T09:15:22;25.60;56.70
59977;DHT22;45837;51.076;3.578;2023-06-22T09:17:48;25.60;57.10
59977;DHT22;45837;51.076;3.578;2023-06-22T09:20:14;25.60;57.50
59977;DHT22;45837;51.076;3.578;2023-06-22T09:22:40;25.60;57.70
59977;DHT22;45837;51.076;3.578;2023-06-22T09:25:06;25.60;57.60
59977;DHT22;45837;51.076;3.578;2023-06-22T09:27:32;25.60;57.20
59977;DHT22;45837;51.076;3.578;2023-06-22T09:29:58;25.60;57.10
59977;DHT22;45837;51.076;3.578;2023-06-22T09:32:24;25.60;57.40
59977;DHT22;45837;51.076;3.578;2023-06-22T09:34:51;25.60;56.70
59977;DHT22;45837;51.076;3.578;2023-06-22T09:37:16;25.60;57.40
59977;DHT22;45837;51.076;3.578;2023-06-22T09:39:42;25.60;57.60
59977;DHT22;45837;51.076;3.578;2023-06-22T09:42:08;25.60;57.30
59977;DHT22;45837;51.076;3.578;2023-06-22T09:44:33;25.60;57.80
59977;DHT22;45837;51.076;3.578;2023-06-22T09:46:59;25.60;57.30
59977;DHT22;45837;51.076;3.578;2023-06-22T09:49:25;25.50;57.20
59977;DHT22;45837;51.076;3.578;2023-06-22T09:51:51;25.60;56.70
59977;DHT22;45837;51.076;3.578;2023-06-22T09:54:17;25.60;56.90
59977;DHT22;45837;51.076;3.578;2023-06-22T09:56:43;25.60;57.00
59977;DHT22;45837;51.076;3.578;2023-06-22T09:59:09;25.60;56.90
59977;DHT22;45837;51.076;3.578;2023-06-22T10:01:35;25.50;56.90
59977;DHT22;45837;51.076;3.578;2023-06-22T10:04:01;25.60;57.10
59977;DHT22;45837;51.076;3.578;2023-06-22T10:06:27;25.50;56.70
59977;DHT22;45837;51.076;3.578;2023-06-22T10:08:53;25.50;56.80
59977;DHT22;45837;51.076;3.578;2023-06-22T10:11:19;25.50;57.00
59977;DHT22;45837;51.076;3.578;2023-06-22T10:13:44;25.50;56.90
59977;DHT22;45837;51.076;3.578;2023-06-22T10:16:10;25.50;56.80
59977;DHT22;45837;51.076;3.578;2023-06-22T10:18:36;25.50;56.80
59977;DHT22;45837;51.076;3.578;2023-06-22T10:21:01;25.60;56.70
59977;DHT22;45837;51.076;3.578;2023-06-22T10:23:27;25.50;56.60
59977;DHT22;45837;51.076;3.578;2023-06-22T10:25:53;25.50;56.50
59977;DHT22;45837;51.076;3.578;2023-06-22T10:28:19;25.50;56.50
59977;DHT22;45837;51.076;3.578;2023-06-22T10:30:46;25.50;56.60
59977;DHT22;45837;51.076;3.578;2023-06-22T10:33:12;25.50;56.80
59977;DHT22;45837;51.076;3.578;2023-06-22T10:35:38;25.50;56.50
59977;DHT22;45837;51.076;3.578;2023-06-22T10:38:04;25.50;56.30
59977;DHT22;45837;51.076;3.578;2023-06-22T10:40:30;25.50;56.40
59977;DHT22;45837;51.076;3.578;2023-06-22T10:42:56;25.50;56.40
59977;DHT22;45837;51.076;3.578;2023-06-22T10:45:21;25.50;57.10
59977;DHT22;45837;51.076;3.578;2023-06-22T10:47:47;25.50;57.20
59977;DHT22;45837;51.076;3.578;2023-06-22T10:50:13;25.50;57.20
59977;DHT22;45837;51.076;3.578;2023-06-22T10:52:39;25.50;57.20
59977;DHT22;45837;51.076;3.578;2023-06-22T10:55:05;25.50;57.30
59977;DHT22;45837;51.076;3.578;2023-06-22T10:57:31;25.50;57.90
59977;DHT22;45837;51.076;3.578;2023-06-22T10:59:57;25.50;57.90
59977;DHT22;45837;51.076;3.578;2023-06-22T11:02:23;25.50;57.70
59977;DHT22;45837;51.076;3.578;2023-06-22T11:04:49;25.50;57.40
59977;DHT22;45837;51.076;3.578;2023-06-22T11:07:15;25.50;57.50
59977;DHT22;45837;51.076;3.578;2023-06-22T11:09:42;25.50;57.10
59977;DHT22;45837;51.076;3.578;2023-06-22T11:12:08;25.50;56.60
59977;DHT22;45837;51.076;3.578;2023-06-22T11:14:34;25.40;56.70
59977;DHT22;45837;51.076;3.578;2023-06-22T11:16:59;25.40;56.90
59977;DHT22;45837;51.076;3.578;2023-06-22T11:19:25;25.40;57.00
59977;DHT22;45837;51.076;3.578;2023-06-22T11:21:51;25.50;57.10
59977;DHT22;45837;51.076;3.578;2023-06-22T11:24:17;25.40;56.50
59977;DHT22;45837;51.076;3.578;2023-06-22T11:26:43;25.40;56.50
59977;DHT22;45837;51.076;3.578;2023-06-22T11:29:08;25.40;56.60
59977;DHT22;45837;51.076;3.578;2023-06-22T11:31:34;25.40;56.30
59977;DHT22;45837;51.076;3.578;2023-06-22T11:34:00;25.40;55.90
59977;DHT22;45837;51.076;3.578;2023-06-22T11:36:26;25.40;56.20
59977;DHT22;45837;51.076;3.578;2023-06-22T11:38:52;25.40;55.60
59977;DHT22;45837;51.076;3.578;2023-06-22T11:41:18;25.40;55.10
59977;DHT22;45837;51.076;3.578;2023-06-22T11:43:44;25.40;55.00
59977;DHT22;45837;51.076;3.578;2023-06-22T11:46:10;25.40;54.40
59977;DHT22;45837;51.076;3.578;2023-06-22T11:48:35;25.40;54.60
59977;DHT22;45837;51.076;3.578;2023-06-22T11:51:01;25.40;54.70
59977;DHT22;45837;51.076;3.578;2023-06-22T11:53:28;25.40;54.50
59977;DHT22;45837;51.076;3.578;2023-06-22T11:55:54;25.40;54.90
59977;DHT22;45837;51.076;3.578;2023-06-22T11:58:20;25.40;54.50
59977;DHT22;45837;51.076;3.578;2023-06-22T12:00:47;25.40;54.90
59977;DHT22;45837;51.076;3.578;2023-06-22T12:03:13;25.40;54.40
59977;DHT22;45837;51.076;3.578;2023-06-22T12:05:40;25.40;54.50
59977;DHT22;45837;51.076;3.578;2023-06-22T12:08:06;25.40;54.40
59977;DHT22;45837;51.076;3.578;2023-06-22T12:10:32;25.40;54.80
59977;DHT22;45837;51.076;3.578;2023-06-22T12:12:57;25.40;55.10
59977;DHT22;45837;51.076;3.578;2023-06-22T12:15:25;25.40;55.20
59977;DHT22;45837;51.076;3.578;2023-06-22T12:17:51;25.40;55.20
59977;DHT22;45837;51.076;3.578;2023-06-22T12:20:17;25.40;56.20
59977;DHT22;45837;51.076;3.578;2023-06-22T12:22:42;25.40;55.60
59977;DHT22;45837;51.076;3.578;2023-06-22T12:25:08;25.40;55.50
59977;DHT22;45837;51.076;3.578;2023-06-22T12:27:37;25.40;55.80
59977;DHT22;45837;51.076;3.578;2023-06-22T12:30:03;25.40;55.90
59977;DHT22;45837;51.076;3.578;2023-06-22T12:32:29;25.40;55.40
59977;DHT22;45837;51.076;3.578;2023-06-22T12:34:55;25.40;55.90
59977;DHT22;45837;51.076;3.578;2023-06-22T12:37:21;25.40;55.90
59977;DHT22;45837;51.076;3.578;2023-06-22T12:39:47;25.40;56.00
59977;DHT22;45837;51.076;3.578;2023-06-22T12:42:12;25.40;56.00
59977;DHT22;45837;51.076;3.578;2023-06-22T12:44:38;25.40;55.80
59977;DHT22;45837;51.076;3.578;2023-06-22T12:47:07;25.40;55.90
59977;DHT22;45837;51.076;3.578;2023-06-22T12:49:36;25.40;55.90
59977;DHT22;45837;51.076;3.578;2023-06-22T12:52:02;25.50;56.30
59977;DHT22;45837;51.076;3.578;2023-06-22T12:54:28;25.40;56.30
59977;DHT22;45837;51.076;3.578;2023-06-22T12:56:55;25.50;56.80
59977;DHT22;45837;51.076;3.578;2023-06-22T12:59:20;25.50;56.60
59977;DHT22;45837;51.076;3.578;2023-06-22T13:01:46;25.50;57.00
59977;DHT22;45837;51.076;3.578;2023-06-22T13:04:12;25.50;57.20
59977;DHT22;45837;51.076;3.578;2023-06-22T13:06:40;25.40;57.00
59977;DHT22;45837;51.076;3.578;2023-06-22T13:09:06;25.50;56.60
59977;DHT22;45837;51.076;3.578;2023-06-22T13:11:31;25.50;56.50
59977;DHT22;45837;51.076;3.578;2023-06-22T13:13:57;25.50;56.50
59977;DHT22;45837;51.076;3.578;2023-06-22T13:16:23;25.50;56.70
59977;DHT22;45837;51.076;3.578;2023-06-22T13:18:48;25.50;56.90
59977;DHT22;45837;51.076;3.578;2023-06-22T13:21:14;25.50;56.90
59977;DHT22;45837;51.076;3.578;2023-06-22T13:23:40;25.40;56.80
59977;DHT22;45837;51.076;3.578;2023-06-22T13:26:07;25.50;56.80
59977;DHT22;45837;51.076;3.578;2023-06-22T13:28:33;25.50;56.60
59977;DHT22;45837;51.076;3.578;2023-06-22T13:30:58;25.50;57.00
59977;DHT22;45837;51.076;3.578;2023-06-22T13:33:24;25.50;57.40
59977;DHT22;45837;51.076;3.578;2023-06-22T13:35:49;25.50;57.30
59977;DHT22;45837;51.076;3.578;2023-06-22T13:38:15;25.60;57.10
59977;DHT22;45837;51.076;3.578;2023-06-22T13:40:42;25.60;56.90
59977;DHT22;45837;51.076;3.578;2023-06-22T13:43:08;25.60;56.90
59977;DHT22;45837;51.076;3.578;2023-06-22T13:45:34;25.60;56.80
59977;DHT22;45837;51.076;3.578;2023-06-22T13:47:59;25.60;57.30
59977;DHT22;45837;51.076;3.578;2023-06-22T13:50:25;25.60;57.10
59977;DHT22;45837;51.076;3.578;2023-06-22T13:52:51;25.60;57.30
59977;DHT22;45837;51.076;3.578;2023-06-22T13:55:16;25.60;57.30
59977;DHT22;45837;51.076;3.578;2023-06-22T13:57:42;25.60;57.60
59977;DHT22;45837;51.076;3.578;2023-06-22T14:00:08;25.60;57.70
59977;DHT22;45837;51.076;3.578;2023-06-22T14:02:40;25.60;57.90
59977;DHT22;45837;51.076;3.578;2023-06-22T14:05:07;25.60;58.30
59977;DHT22;45837;51.076;3.578;2023-06-22T14:07:32;25.60;58.10
59977;DHT22;45837;51.076;3.578;2023-06-22T14:09:59;25.60;58.40
59977;DHT22;45837;51.076;3.578;2023-06-22T14:12:25;25.60;58.20
59977;DHT22;45837;51.076;3.578;2023-06-22T14:14:50;25.60;58.30
59977;DHT22;45837;51.076;3.578;2023-06-22T14:17:16;25.60;58.50
59977;DHT22;45837;51.076;3.578;2023-06-22T14:19:42;25.60;59.00
59977;DHT22;45837;51.076;3.578;2023-06-22T14:22:08;25.60;58.50
59977;DHT22;45837;51.076;3.578;2023-06-22T14:24:33;25.70;58.80
59977;DHT22;45837;51.076;3.578;2023-06-22T14:26:59;25.60;58.50
59977;DHT22;45837;51.076;3.578;2023-06-22T14:29:28;25.60;58.30
59977;DHT22;45837;51.076;3.578;2023-06-22T14:31:54;25.60;58.30
59977;DHT22;45837;51.076;3.578;2023-06-22T14:34:20;25.60;58.40
59977;DHT22;45837;51.076;3.578;2023-06-22T14:36:45;25.60;58.60
59977;DHT22;45837;51.076;3.578;2023-06-22T14:39:11;25.70;58.50
59977;DHT22;45837;51.076;3.578;2023-06-22T14:41:36;25.60;58.80
59977;DHT22;45837;51.076;3.578;2023-06-22T14:44:02;25.60;58.50
59977;DHT22;45837;51.076;3.578;2023-06-22T14:46:28;25.70;58.60
59977;DHT22;45837;51.076;3.578;2023-06-22T14:48:53;25.60;58.80
59977;DHT22;45837;51.076;3.578;2023-06-22T14:51:19;25.70;58.30
59977;DHT22;45837;51.076;3.578;2023-06-22T14:53:45;25.70;58.40
59977;DHT22;45837;51.076;3.578;2023-06-22T14:56:11;25.70;58.10
59977;DHT22;45837;51.076;3.578;2023-06-22T14:58:39;25.70;58.30
59977;DHT22;45837;51.076;3.578;2023-06-22T15:01:05;25.70;58.00
59977;DHT22;45837;51.076;3.578;2023-06-22T15:03:36;25.70;58.10
59977;DHT22;45837;51.076;3.578;2023-06-22T15:06:02;25.70;57.90
59977;DHT22;45837;51.076;3.578;2023-06-22T15:08:28;25.70;57.90
59977;DHT22;45837;51.076;3.578;2023-06-22T15:10:54;25.70;57.90
59977;DHT22;45837;51.076;3.578;2023-06-22T15:13:20;25.70;57.90
59977;DHT22;45837;51.076;3.578;2023-06-22T15:15:46;25.70;58.60
59977;DHT22;45837;51.076;3.578;2023-06-22T15:18:13;25.70;57.90
59977;DHT22;45837;51.076;3.578;2023-06-22T15:20:39;25.30;57.50
59977;DHT22;45837;51.076;3.578;2023-06-22T15:23:06;25.70;58.80
59977;DHT22;45837;51.076;3.578;2023-06-22T15:25:32;25.80;58.00
59977;DHT22;45837;51.076;3.578;2023-06-22T15:27:58;25.70;58.30
59977;DHT22;45837;51.076;3.578;2023-06-22T15:30:23;25.70;58.30